sensor_id;sensor_type;location;lat;lon;timestamp;pressure;altitude;pressure_sealevel;temperature;humidity
59767;BME280;46248;58.364;25.582;2023-05-22T00:02:28;101727.31;;;9.91;55.75
59767;BME280;46248;58.364;25.582;2023-05-22T00:05:52;101719.63;;;9.85;56.22
59767;BME280;46248;58.364;25.582;2023-05-22T00:09:18;101728.56;;;9.78;56.52
59767;BME280;46248;58.364;25.582;2023-05-22T00:12:40;101719.16;;;9.71;56.82
59767;BME280;46248;58.364;25.582;2023-05-22T00:16:02;101725.34;;;9.68;57.85
59767;BME280;46248;58.364;25.582;2023-05-22T00:19:25;101727.25;;;9.63;58.95
59767;BME280;46248;58.364;25.582;2023-05-22T00:22:49;101715.03;;;9.62;58.21
59767;BME280;46248;58.364;25.582;2023-05-22T00:26:13;101718.50;;;9.64;56.94
59767;BME280;46248;58.364;25.582;2023-05-22T00:29:35;101720.06;;;9.70;56.81
59767;BME280;46248;58.364;25.582;2023-05-22T00:32:57;101707.03;;;9.68;56.44
59767;BME280;46248;58.364;25.582;2023-05-22T00:36:20;101717.19;;;9.79;56.21
59767;BME280;46248;58.364;25.582;2023-05-22T00:39:42;101707.69;;;9.76;55.51
59767;BME280;46248;58.364;25.582;2023-05-22T00:43:04;101699.16;;;9.70;55.85
59767;BME280;46248;58.364;25.582;2023-05-22T00:46:28;101717.19;;;9.79;55.44
59767;BME280;46248;58.364;25.582;2023-05-22T00:49:50;101709.41;;;9.77;55.84
59767;BME280;46248;58.364;25.582;2023-05-22T00:53:14;101714.59;;;9.79;56.08
59767;BME280;46248;58.364;25.582;2023-05-22T00:56:36;101712.03;;;9.77;55.67
59767;BME280;46248;58.364;25.582;2023-05-22T00:59:58;101713.75;;;9.77;55.83
59767;BME280;46248;58.364;25.582;2023-05-22T01:03:21;101710.28;;;9.76;55.71
59767;BME280;46248;58.364;25.582;2023-05-22T01:06:46;101711.16;;;9.77;55.70
59767;BME280;46248;58.364;25.582;2023-05-22T01:10:10;101713.91;;;9.72;56.22
59767;BME280;46248;58.364;25.582;2023-05-22T01:13:38;101715.75;;;9.69;55.98
59767;BME280;46248;58.364;25.582;2023-05-22T01:17:09;101708.78;;;9.68;56.29
59767;BME280;46248;58.364;25.582;2023-05-22T01:20:35;101709.66;;;9.68;56.23
59767;BME280;46248;58.364;25.582;2023-05-22T01:24:37;101704.41;;;9.68;57.14
59767;BME280;46248;58.364;25.582;2023-05-22T01:31:59;101694.00;;;9.67;56.12
59767;BME280;46248;58.364;25.582;2023-05-22T01:35:22;101714.88;;;9.68;56.21
59767;BME280;46248;58.364;25.582;2023-05-22T01:38:45;101705.50;;;9.61;56.22
59767;BME280;46248;58.364;25.582;2023-05-22T01:42:07;101696.81;;;9.59;55.61
59767;BME280;46248;58.364;25.582;2023-05-22T01:45:29;101704.72;;;9.57;55.07
59767;BME280;46248;58.364;25.582;2023-05-22T01:48:53;101693.41;;;9.57;55.54
59767;BME280;46248;58.364;25.582;2023-05-22T01:52:21;101679.50;;;9.56;55.62
59767;BME280;46248;58.364;25.582;2023-05-22T01:55:51;101694.94;;;9.64;55.51
59767;BME280;46248;58.364;25.582;2023-05-22T01:59:22;101680.38;;;9.55;55.30
59767;BME280;46248;58.364;25.582;2023-05-22T02:02:50;101684.63;;;9.59;55.35
59767;BME280;46248;58.364;25.582;2023-05-22T02:06:16;101686.38;;;9.59;55.06
59767;BME280;46248;58.364;25.582;2023-05-22T02:09:40;101671.78;;;9.52;54.98
59767;BME280;46248;58.364;25.582;2023-05-22T02:13:02;101678.50;;;9.60;55.21
59767;BME280;46248;58.364;25.582;2023-05-22T02:16:25;101681.06;;;9.62;54.92
59767;BME280;46248;58.364;25.582;2023-05-22T02:19:48;101688.91;;;9.62;54.15
59767;BME280;46248;58.364;25.582;2023-05-22T02:23:11;101680.25;;;9.60;54.49
59767;BME280;46248;58.364;25.582;2023-05-22T02:26:33;101685.41;;;9.63;54.12
59767;BME280;46248;58.364;25.582;2023-05-22T02:29:55;101679.22;;;9.66;54.15
59767;BME280;46248;58.364;25.582;2023-05-22T02:33:17;101665.41;;;9.60;54.22
59767;BME280;46248;58.364;25.582;2023-05-22T02:36:39;101664.34;;;9.68;54.05
59767;BME280;46248;58.364;25.582;2023-05-22T02:40:03;101655.72;;;9.64;53.96
59767;BME280;46248;58.364;25.582;2023-05-22T02:43:26;101666.75;;;9.74;53.75
59767;BME280;46248;58.364;25.582;2023-05-22T02:46:47;101661.44;;;9.77;54.10
59767;BME280;46248;58.364;25.582;2023-05-22T02:50:10;101659.47;;;9.85;53.92
59767;BME280;46248;58.364;25.582;2023-05-22T02:53:32;101646.47;;;9.82;53.81
59767;BME280;46248;58.364;25.582;2023-05-22T02:56:56;101646.16;;;9.93;53.48
59767;BME280;46248;58.364;25.582;2023-05-22T03:00:19;101639.97;;;9.95;53.03
59767;BME280;46248;58.364;25.582;2023-05-22T03:03:41;101639.84;;;10.00;52.78
59767;BME280;46248;58.364;25.582;2023-05-22T03:07:04;101644.91;;;10.04;52.81
59767;BME280;46248;58.364;25.582;2023-05-22T03:10:26;101644.97;;;10.03;52.65
59767;BME280;46248;58.364;25.582;2023-05-22T03:13:50;101644.78;;;10.09;52.38
59767;BME280;46248;58.364;25.582;2023-05-22T03:17:12;101642.69;;;10.20;52.49
59767;BME280;46248;58.364;25.582;2023-05-22T03:20:34;101640.59;;;10.31;52.43
59767;BME280;46248;58.364;25.582;2023-05-22T03:23:56;101624.00;;;10.32;52.40
59767;BME280;46248;58.364;25.582;2023-05-22T03:27:18;101644.66;;;10.42;52.51
59767;BME280;46248;58.364;25.582;2023-05-22T03:30:42;101649.91;;;10.40;52.78
59767;BME280;46248;58.364;25.582;2023-05-22T03:34:04;101641.19;;;10.41;52.29
59767;BME280;46248;58.364;25.582;2023-05-22T03:37:27;101640.41;;;10.64;51.97
59767;BME280;46248;58.364;25.582;2023-05-22T03:40:49;101646.47;;;10.91;51.86
59767;BME280;46248;58.364;25.582;2023-05-22T03:44:11;101631.94;;;11.08;51.58
59767;BME280;46248;58.364;25.582;2023-05-22T03:47:34;101629.28;;;11.33;51.27
59767;BME280;46248;58.364;25.582;2023-05-22T03:50:57;101643.53;;;11.73;50.22
59767;BME280;46248;58.364;25.582;2023-05-22T03:54:19;101637.19;;;12.02;49.59
59767;BME280;46248;58.364;25.582;2023-05-22T03:57:41;101639.31;;;12.36;49.39
59767;BME280;46248;58.364;25.582;2023-05-22T04:01:04;101626.94;;;12.60;48.48
59767;BME280;46248;58.364;25.582;2023-05-22T04:04:27;101633.97;;;12.80;48.26
59767;BME280;46248;58.364;25.582;2023-05-22T04:07:49;101631.53;;;12.96;47.21
59767;BME280;46248;58.364;25.582;2023-05-22T04:11:11;101629.19;;;13.10;48.03
59767;BME280;46248;58.364;25.582;2023-05-22T04:14:35;101618.50;;;13.34;47.17
59767;BME280;46248;58.364;25.582;2023-05-22T04:17:56;101628.78;;;13.59;47.07
59767;BME280;46248;58.364;25.582;2023-05-22T04:21:20;101625.28;;;13.77;47.12
59767;BME280;46248;58.364;25.582;2023-05-22T04:24:42;101616.50;;;13.95;47.04
59767;BME280;46248;58.364;25.582;2023-05-22T04:28:08;101625.22;;;14.15;46.61
59767;BME280;46248;58.364;25.582;2023-05-22T04:31:32;101617.50;;;14.29;46.63
59767;BME280;46248;58.364;25.582;2023-05-22T04:34:54;101607.44;;;14.37;46.79
59767;BME280;46248;58.364;25.582;2023-05-22T04:38:19;101607.84;;;14.47;46.65
59767;BME280;46248;58.364;25.582;2023-05-22T04:41:41;101597.75;;;14.55;46.27
59767;BME280;46248;58.364;25.582;2023-05-22T04:45:04;101594.75;;;14.63;46.74
59767;BME280;46248;58.364;25.582;2023-05-22T04:48:26;101588.69;;;14.78;46.52
59767;BME280;46248;58.364;25.582;2023-05-22T04:51:48;101605.41;;;14.95;46.15
59767;BME280;46248;58.364;25.582;2023-05-22T04:55:11;101602.16;;;15.07;46.08
59767;BME280;46248;58.364;25.582;2023-05-22T04:58:33;101590.41;;;15.12;45.94
59767;BME280;46248;58.364;25.582;2023-05-22T05:01:57;101597.88;;;15.38;45.77
59767;BME280;46248;58.364;25.582;2023-05-22T05:05:19;101595.25;;;15.38;45.94
59767;BME280;46248;58.364;25.582;2023-05-22T05:08:41;101585.41;;;15.24;46.51
59767;BME280;46248;58.364;25.582;2023-05-22T05:12:05;101591.91;;;15.34;46.68
59767;BME280;46248;58.364;25.582;2023-05-22T05:15:28;101593.78;;;15.48;46.23
59767;BME280;46248;58.364;25.582;2023-05-22T05:18:50;101592.09;;;15.47;46.60
59767;BME280;46248;58.364;25.582;2023-05-22T05:22:13;101591.72;;;15.70;46.56
59767;BME280;46248;58.364;25.582;2023-05-22T05:25:35;101589.06;;;15.86;46.19
59767;BME280;46248;58.364;25.582;2023-05-22T05:28:59;101585.97;;;15.94;45.43
59767;BME280;46248;58.364;25.582;2023-05-22T05:32:21;101592.00;;;16.12;45.44
59767;BME280;46248;58.364;25.582;2023-05-22T05:35:43;101580.22;;;16.17;45.48
59767;BME280;46248;58.364;25.582;2023-05-22T05:39:05;101578.91;;;16.40;45.64
59767;BME280;46248;58.364;25.582;2023-05-22T05:42:27;101578.72;;;16.58;44.88
59767;BME280;46248;58.364;25.582;2023-05-22T05:45:51;101578.72;;;16.43;45.23
59767;BME280;46248;58.364;25.582;2023-05-22T05:49:13;101577.34;;;16.36;45.01
59767;BME280;46248;58.364;25.582;2023-05-22T05:52:35;101588.38;;;16.59;45.38
59767;BME280;46248;58.364;25.582;2023-05-22T05:55:58;101586.13;;;16.67;44.80
59767;BME280;46248;58.364;25.582;2023-05-22T05:59:20;101581.13;;;16.62;44.41
59767;BME280;46248;58.364;25.582;2023-05-22T06:02:45;101587.53;;;16.72;44.13
59767;BME280;46248;58.364;25.582;2023-05-22T06:06:10;101582.75;;;16.79;44.15
59767;BME280;46248;58.364;25.582;2023-05-22T06:09:35;101585.91;;;17.00;43.60
59767;BME280;46248;58.364;25.582;2023-05-22T06:12:56;101584.84;;;17.46;42.88
59767;BME280;46248;58.364;25.582;2023-05-22T06:16:18;101584.94;;;17.58;43.83
59767;BME280;46248;58.364;25.582;2023-05-22T06:19:42;101588.03;;;17.65;43.68
59767;BME280;46248;58.364;25.582;2023-05-22T06:23:04;101581.00;;;17.78;43.85
59767;BME280;46248;58.364;25.582;2023-05-22T06:26:26;101578.09;;;17.83;43.35
59767;BME280;46248;58.364;25.582;2023-05-22T06:29:49;101575.13;;;17.88;43.65
59767;BME280;46248;58.364;25.582;2023-05-22T06:33:11;101578.13;;;17.96;43.09
59767;BME280;46248;58.364;25.582;2023-05-22T06:36:35;101577.63;;;18.03;43.18
59767;BME280;46248;58.364;25.582;2023-05-22T06:39:57;101580.16;;;18.05;42.71
59767;BME280;46248;58.364;25.582;2023-05-22T06:43:19;101567.28;;;18.13;43.12
59767;BME280;46248;58.364;25.582;2023-05-22T06:46:42;101561.03;;;18.27;42.70
59767;BME280;46248;58.364;25.582;2023-05-22T06:50:04;101562.91;;;18.65;42.31
59767;BME280;46248;58.364;25.582;2023-05-22T06:53:27;101552.28;;;19.03;41.36
59767;BME280;46248;58.364;25.582;2023-05-22T06:56:49;101554.69;;;19.32;41.30
59767;BME280;46248;58.364;25.582;2023-05-22T07:00:12;101547.22;;;19.50;40.67
59767;BME280;46248;58.364;25.582;2023-05-22T07:03:34;101548.59;;;19.55;41.27
59767;BME280;46248;58.364;25.582;2023-05-22T07:06:56;101549.06;;;19.60;41.03
59767;BME280;46248;58.364;25.582;2023-05-22T07:10:19;101526.09;;;19.72;39.73
59767;BME280;46248;58.364;25.582;2023-05-22T07:13:41;101533.84;;;19.75;39.76
59767;BME280;46248;58.364;25.582;2023-05-22T07:17:03;101532.31;;;19.84;39.02
59767;BME280;46248;58.364;25.582;2023-05-22T07:20:25;101533.75;;;20.01;40.11
59767;BME280;46248;58.364;25.582;2023-05-22T07:23:48;101526.44;;;20.27;39.14
59767;BME280;46248;58.364;25.582;2023-05-22T07:27:11;101525.72;;;20.36;38.16
59767;BME280;46248;58.364;25.582;2023-05-22T07:30:34;101527.22;;;20.40;38.15
59767;BME280;46248;58.364;25.582;2023-05-22T07:33:56;101518.50;;;20.38;38.29
59767;BME280;46248;58.364;25.582;2023-05-22T07:37:19;101523.91;;;20.61;36.29
59767;BME280;46248;58.364;25.582;2023-05-22T07:40:41;101511.19;;;20.53;36.73
59767;BME280;46248;58.364;25.582;2023-05-22T07:44:05;101506.59;;;20.55;36.17
59767;BME280;46248;58.364;25.582;2023-05-22T07:47:27;101506.25;;;20.71;36.50
59767;BME280;46248;58.364;25.582;2023-05-22T07:50:49;101501.28;;;20.77;35.76
59767;BME280;46248;58.364;25.582;2023-05-22T07:54:11;101503.84;;;20.79;36.79
59767;BME280;46248;58.364;25.582;2023-05-22T07:57:34;101502.13;;;20.89;37.19
59767;BME280;46248;58.364;25.582;2023-05-22T08:00:57;101498.72;;;20.98;36.03
59767;BME280;46248;58.364;25.582;2023-05-22T08:04:20;101475.50;;;20.89;35.70
59767;BME280;46248;58.364;25.582;2023-05-22T08:07:42;101486.63;;;20.94;35.30
59767;BME280;46248;58.364;25.582;2023-05-22T08:11:04;101487.59;;;20.93;35.26
59767;BME280;46248;58.364;25.582;2023-05-22T08:14:27;101477.31;;;21.00;35.72
59767;BME280;46248;58.364;25.582;2023-05-22T08:17:50;101479.50;;;21.06;35.19
59767;BME280;46248;58.364;25.582;2023-05-22T08:21:12;101478.38;;;21.09;35.40
59767;BME280;46248;58.364;25.582;2023-05-22T08:24:34;101474.75;;;21.10;35.77
59767;BME280;46248;58.364;25.582;2023-05-22T08:27:56;101468.28;;;21.23;35.47
59767;BME280;46248;58.364;25.582;2023-05-22T08:31:18;101462.47;;;21.30;35.39
59767;BME280;46248;58.364;25.582;2023-05-22T08:34:41;101457.88;;;21.43;34.50
59767;BME280;46248;58.364;25.582;2023-05-22T08:38:05;101442.22;;;21.49;33.71
59767;BME280;46248;58.364;25.582;2023-05-22T08:41:28;101442.16;;;21.40;33.96
59767;BME280;46248;58.364;25.582;2023-05-22T08:44:50;101458.44;;;21.58;33.42
59767;BME280;46248;58.364;25.582;2023-05-22T08:48:12;101451.06;;;21.50;32.68
59767;BME280;46248;58.364;25.582;2023-05-22T08:51:39;101453.72;;;21.50;33.88
59767;BME280;46248;58.364;25.582;2023-05-22T08:55:02;101447.84;;;21.24;33.92
59767;BME280;46248;58.364;25.582;2023-05-22T08:58:26;101441.66;;;21.23;34.48
59767;BME280;46248;58.364;25.582;2023-05-22T09:01:48;101437.97;;;21.03;34.55
59767;BME280;46248;58.364;25.582;2023-05-22T09:05:12;101443.66;;;20.99;34.51
59767;BME280;46248;58.364;25.582;2023-05-22T09:08:36;101437.59;;;21.08;33.86
59767;BME280;46248;58.364;25.582;2023-05-22T09:11:58;101429.19;;;21.24;33.39
59767;BME280;46248;58.364;25.582;2023-05-22T09:15:21;101429.75;;;21.50;33.18
59767;BME280;46248;58.364;25.582;2023-05-22T09:18:43;101420.94;;;21.70;33.47
59767;BME280;46248;58.364;25.582;2023-05-22T09:22:05;101417.19;;;21.73;33.65
59767;BME280;46248;58.364;25.582;2023-05-22T09:25:28;101416.91;;;21.76;33.42
59767;BME280;46248;58.364;25.582;2023-05-22T09:28:51;101414.88;;;21.68;32.84
59767;BME280;46248;58.364;25.582;2023-05-22T09:32:13;101414.81;;;21.59;33.53
59767;BME280;46248;58.364;25.582;2023-05-22T09:35:35;101403.63;;;21.65;33.44
59767;BME280;46248;58.364;25.582;2023-05-22T09:38:59;101406.88;;;21.68;33.87
59767;BME280;46248;58.364;25.582;2023-05-22T09:42:23;101395.13;;;21.71;33.66
59767;BME280;46248;58.364;25.582;2023-05-22T09:45:46;101388.38;;;21.67;32.88
59767;BME280;46248;58.364;25.582;2023-05-22T09:49:08;101379.66;;;21.65;32.63
59767;BME280;46248;58.364;25.582;2023-05-22T09:52:34;101380.50;;;21.65;32.64
59767;BME280;46248;58.364;25.582;2023-05-22T09:55:58;101375.69;;;21.59;32.40
59767;BME280;46248;58.364;25.582;2023-05-22T09:59:25;101379.19;;;21.60;32.42
59767;BME280;46248;58.364;25.582;2023-05-22T10:02:53;101366.78;;;21.70;32.93
59767;BME280;46248;58.364;25.582;2023-05-22T10:06:24;101362.88;;;21.74;33.12
59767;BME280;46248;58.364;25.582;2023-05-22T10:09:50;101334.41;;;21.54;32.40
59767;BME280;46248;58.364;25.582;2023-05-22T10:13:13;101351.91;;;21.67;32.64
59767;BME280;46248;58.364;25.582;2023-05-22T10:16:37;101348.03;;;21.60;33.44
59767;BME280;46248;58.364;25.582;2023-05-22T10:20:00;101342.28;;;21.55;32.88
59767;BME280;46248;58.364;25.582;2023-05-22T10:23:25;101339.56;;;21.45;32.99
59767;BME280;46248;58.364;25.582;2023-05-22T10:26:49;101335.06;;;21.46;32.89
59767;BME280;46248;58.364;25.582;2023-05-22T10:30:19;101335.97;;;21.56;32.87
59767;BME280;46248;58.364;25.582;2023-05-22T10:33:47;101328.38;;;21.72;32.48
59767;BME280;46248;58.364;25.582;2023-05-22T10:37:14;101318.88;;;21.80;30.04
59767;BME280;46248;58.364;25.582;2023-05-22T10:40:44;101318.28;;;21.76;31.65
59767;BME280;46248;58.364;25.582;2023-05-22T10:44:07;101312.50;;;21.71;31.68
59767;BME280;46248;58.364;25.582;2023-05-22T10:47:31;101317.88;;;21.60;32.18
59767;BME280;46248;58.364;25.582;2023-05-22T10:50:55;101312.56;;;21.60;32.72
59767;BME280;46248;58.364;25.582;2023-05-22T10:54:37;101317.25;;;21.67;32.62
59767;BME280;46248;58.364;25.582;2023-05-22T10:58:11;101314.19;;;21.72;32.78
59767;BME280;46248;58.364;25.582;2023-05-22T11:01:33;101317.31;;;21.77;31.96
59767;BME280;46248;58.364;25.582;2023-05-22T11:05:33;101308.06;;;21.81;32.45
59767;BME280;46248;58.364;25.582;2023-05-22T11:08:57;101317.00;;;22.01;32.94
59767;BME280;46248;58.364;25.582;2023-05-22T11:12:23;101310.84;;;22.31;32.55
59767;BME280;46248;58.364;25.582;2023-05-22T11:15:47;101304.81;;;22.39;33.65
59767;BME280;46248;58.364;25.582;2023-05-22T11:19:09;101291.44;;;22.29;33.76
59767;BME280;46248;58.364;25.582;2023-05-22T11:22:35;101296.78;;;22.29;34.67
59767;BME280;46248;58.364;25.582;2023-05-22T11:26:16;101294.25;;;22.18;34.79
59767;BME280;46248;58.364;25.582;2023-05-22T11:29:40;101309.25;;;22.19;35.68
59767;BME280;46248;58.364;25.582;2023-05-22T11:33:04;101297.09;;;22.05;35.09
59767;BME280;46248;58.364;25.582;2023-05-22T11:36:26;101300.19;;;22.10;34.94
59767;BME280;46248;58.364;25.582;2023-05-22T11:39:49;101286.91;;;22.20;35.84
59767;BME280;46248;58.364;25.582;2023-05-22T11:43:12;101285.34;;;22.48;35.10
59767;BME280;46248;58.364;25.582;2023-05-22T11:46:35;101275.41;;;22.70;34.21
59767;BME280;46248;58.364;25.582;2023-05-22T11:49:57;101285.91;;;22.61;34.77
59767;BME280;46248;58.364;25.582;2023-05-22T11:53:19;101274.50;;;22.50;34.74
59767;BME280;46248;58.364;25.582;2023-05-22T11:56:41;101282.50;;;22.50;34.67
59767;BME280;46248;58.364;25.582;2023-05-22T12:00:07;101271.38;;;22.35;34.33
59767;BME280;46248;58.364;25.582;2023-05-22T12:03:31;101274.81;;;22.16;35.00
59767;BME280;46248;58.364;25.582;2023-05-22T12:06:53;101274.47;;;22.00;35.42
59767;BME280;46248;58.364;25.582;2023-05-22T12:10:16;101267.78;;;21.84;35.75
59767;BME280;46248;58.364;25.582;2023-05-22T12:13:38;101276.31;;;21.78;35.64
59767;BME280;46248;58.364;25.582;2023-05-22T12:17:02;101270.84;;;21.70;35.80
59767;BME280;46248;58.364;25.582;2023-05-22T12:20:28;101253.94;;;21.60;36.37
59767;BME280;46248;58.364;25.582;2023-05-22T12:23:50;101271.44;;;21.53;36.09
59767;BME280;46248;58.364;25.582;2023-05-22T12:27:13;101268.72;;;21.43;35.92
59767;BME280;46248;58.364;25.582;2023-05-22T12:30:39;101269.81;;;21.40;36.39
59767;BME280;46248;58.364;25.582;2023-05-22T12:34:06;101267.88;;;21.42;36.38
59767;BME280;46248;58.364;25.582;2023-05-22T12:37:28;101268.56;;;21.44;36.27
59767;BME280;46248;58.364;25.582;2023-05-22T12:40:52;101271.13;;;21.46;36.49
59767;BME280;46248;58.364;25.582;2023-05-22T12:44:14;101271.16;;;21.56;36.07
59767;BME280;46248;58.364;25.582;2023-05-22T12:47:36;101264.31;;;21.63;36.25
59767;BME280;46248;58.364;25.582;2023-05-22T12:51:00;101237.69;;;21.63;36.94
59767;BME280;46248;58.364;25.582;2023-05-22T12:54:22;101261.81;;;21.92;36.24
59767;BME280;46248;58.364;25.582;2023-05-22T12:57:44;101255.63;;;21.91;36.27
59767;BME280;46248;58.364;25.582;2023-05-22T13:01:06;101252.16;;;22.01;36.82
59767;BME280;46248;58.364;25.582;2023-05-22T13:04:28;101252.00;;;22.02;36.57
59767;BME280;46248;58.364;25.582;2023-05-22T13:07:51;101243.13;;;22.23;37.06
59767;BME280;46248;58.364;25.582;2023-05-22T13:11:13;101240.47;;;22.23;36.79
59767;BME280;46248;58.364;25.582;2023-05-22T13:14:35;101238.78;;;22.22;36.79
59767;BME280;46248;58.364;25.582;2023-05-22T13:17:58;101230.78;;;22.31;37.02
59767;BME280;46248;58.364;25.582;2023-05-22T13:21:20;101233.47;;;22.31;37.09
59767;BME280;46248;58.364;25.582;2023-05-22T13:24:46;101230.09;;;22.29;36.49
59767;BME280;46248;58.364;25.582;2023-05-22T13:28:08;101228.16;;;22.01;37.12
59767;BME280;46248;58.364;25.582;2023-05-22T13:31:29;101224.44;;;21.82;37.08
59767;BME280;46248;58.364;25.582;2023-05-22T13:34:52;101227.84;;;21.63;37.34
59767;BME280;46248;58.364;25.582;2023-05-22T13:38:14;101218.88;;;21.55;38.14
59767;BME280;46248;58.364;25.582;2023-05-22T13:41:37;101219.97;;;21.52;38.12
59767;BME280;46248;58.364;25.582;2023-05-22T13:44:59;101206.75;;;21.30;38.53
59767;BME280;46248;58.364;25.582;2023-05-22T13:48:21;101208.91;;;21.15;38.30
59767;BME280;46248;58.364;25.582;2023-05-22T13:51:43;101197.50;;;21.03;38.65
59767;BME280;46248;58.364;25.582;2023-05-22T13:55:06;101196.53;;;21.04;38.67
59767;BME280;46248;58.364;25.582;2023-05-22T13:58:29;101192.81;;;20.95;38.83
59767;BME280;46248;58.364;25.582;2023-05-22T14:01:51;101196.72;;;20.91;38.95
59767;BME280;46248;58.364;25.582;2023-05-22T14:05:14;101204.75;;;21.01;39.18
59767;BME280;46248;58.364;25.582;2023-05-22T14:08:35;101201.44;;;21.09;39.41
59767;BME280;46248;58.364;25.582;2023-05-22T14:11:58;101195.41;;;21.07;39.28
59767;BME280;46248;58.364;25.582;2023-05-22T14:15:21;101199.66;;;21.09;38.97
59767;BME280;46248;58.364;25.582;2023-05-22T14:18:43;101204.25;;;21.07;39.49
59767;BME280;46248;58.364;25.582;2023-05-22T14:22:05;101198.91;;;21.07;39.50
59767;BME280;46248;58.364;25.582;2023-05-22T14:25:27;101199.69;;;20.98;39.66
59767;BME280;46248;58.364;25.582;2023-05-22T14:28:48;101199.44;;;21.01;39.94
59767;BME280;46248;58.364;25.582;2023-05-22T14:32:12;101193.72;;;21.05;40.32
59767;BME280;46248;58.364;25.582;2023-05-22T14:35:34;101196.06;;;20.99;40.48
59767;BME280;46248;58.364;25.582;2023-05-22T14:38:55;101196.78;;;21.01;41.20
59767;BME280;46248;58.364;25.582;2023-05-22T14:42:17;101188.13;;;20.88;40.91
59767;BME280;46248;58.364;25.582;2023-05-22T14:45:39;101182.34;;;20.83;41.12
59767;BME280;46248;58.364;25.582;2023-05-22T14:49:03;101183.72;;;20.77;41.65
59767;BME280;46248;58.364;25.582;2023-05-22T14:52:25;101182.16;;;20.74;41.91
59767;BME280;46248;58.364;25.582;2023-05-22T14:55:47;101184.34;;;20.69;41.81
59767;BME280;46248;58.364;25.582;2023-05-22T14:59:10;101183.63;;;20.67;42.03
59767;BME280;46248;58.364;25.582;2023-05-22T15:02:32;101182.41;;;20.71;42.07
59767;BME280;46248;58.364;25.582;2023-05-22T15:05:57;101166.59;;;20.70;42.33
59767;BME280;46248;58.364;25.582;2023-05-22T15:09:19;101170.88;;;20.82;42.08
59767;BME280;46248;58.364;25.582;2023-05-22T15:12:41;101174.06;;;20.76;42.42
59767;BME280;46248;58.364;25.582;2023-05-22T15:16:04;101167.81;;;20.87;42.45
59767;BME280;46248;58.364;25.582;2023-05-22T15:19:29;101164.16;;;21.09;42.82
59767;BME280;46248;58.364;25.582;2023-05-22T15:22:52;101155.66;;;21.15;42.70
59767;BME280;46248;58.364;25.582;2023-05-22T15:26:14;101141.69;;;21.22;42.31
59767;BME280;46248;58.364;25.582;2023-05-22T15:29:36;101158.94;;;21.49;42.21
59767;BME280;46248;58.364;25.582;2023-05-22T15:32:58;101152.25;;;21.55;41.32
59767;BME280;46248;58.364;25.582;2023-05-22T15:36:23;101144.56;;;21.61;41.16
59767;BME280;46248;58.364;25.582;2023-05-22T15:39:46;101146.09;;;21.64;41.15
59767;BME280;46248;58.364;25.582;2023-05-22T15:43:08;101144.41;;;21.63;41.10
59767;BME280;46248;58.364;25.582;2023-05-22T15:46:31;101147.88;;;21.54;41.15
59767;BME280;46248;58.364;25.582;2023-05-22T15:49:53;101140.00;;;21.42;41.54
59767;BME280;46248;58.364;25.582;2023-05-22T15:53:15;101137.50;;;21.30;42.62
59767;BME280;46248;58.364;25.582;2023-05-22T15:56:38;101140.81;;;21.12;41.77
59767;BME280;46248;58.364;25.582;2023-05-22T16:00:00;101141.84;;;21.00;41.67
59767;BME280;46248;58.364;25.582;2023-05-22T16:03:22;101131.97;;;20.91;41.09
59767;BME280;46248;58.364;25.582;2023-05-22T16:06:44;101130.06;;;20.81;41.14
59767;BME280;46248;58.364;25.582;2023-05-22T16:10:07;101129.50;;;20.78;41.36
59767;BME280;46248;58.364;25.582;2023-05-22T16:13:31;101135.22;;;20.73;41.72
59767;BME280;46248;58.364;25.582;2023-05-22T16:16:53;101118.94;;;20.67;41.32
59767;BME280;46248;58.364;25.582;2023-05-22T16:20:15;101120.81;;;20.76;41.79
59767;BME280;46248;58.364;25.582;2023-05-22T16:23:37;101117.03;;;20.78;41.43
59767;BME280;46248;58.364;25.582;2023-05-22T16:27:00;101101.22;;;20.77;41.30
59767;BME280;46248;58.364;25.582;2023-05-22T16:30:23;101112.38;;;21.22;41.13
59767;BME280;46248;58.364;25.582;2023-05-22T16:33:45;101115.72;;;21.86;41.02
59767;BME280;46248;58.364;25.582;2023-05-22T16:37:07;101110.00;;;22.00;40.21
59767;BME280;46248;58.364;25.582;2023-05-22T16:40:30;101110.09;;;21.89;40.38
59767;BME280;46248;58.364;25.582;2023-05-22T16:43:52;101115.53;;;21.68;40.75
59767;BME280;46248;58.364;25.582;2023-05-22T16:47:15;101121.34;;;21.42;41.49
59767;BME280;46248;58.364;25.582;2023-05-22T16:50:37;101117.72;;;21.22;41.32
59767;BME280;46248;58.364;25.582;2023-05-22T16:54:02;101120.13;;;21.04;41.99
59767;BME280;46248;58.364;25.582;2023-05-22T16:57:25;101100.69;;;20.83;42.10
59767;BME280;46248;58.364;25.582;2023-05-22T17:00:47;101109.19;;;20.77;41.94
59767;BME280;46248;58.364;25.582;2023-05-22T17:04:11;101090.22;;;20.49;42.22
59767;BME280;46248;58.364;25.582;2023-05-22T17:07:35;101109.44;;;20.53;42.46
59767;BME280;46248;58.364;25.582;2023-05-22T17:10:57;101102.72;;;20.38;42.72
59767;BME280;46248;58.364;25.582;2023-05-22T17:14:19;101098.91;;;20.19;43.03
59767;BME280;46248;58.364;25.582;2023-05-22T17:17:42;101111.00;;;20.12;43.28
59767;BME280;46248;58.364;25.582;2023-05-22T17:21:05;101110.22;;;20.00;43.73
59767;BME280;46248;58.364;25.582;2023-05-22T17:24:28;101103.97;;;19.90;43.90
59767;BME280;46248;58.364;25.582;2023-05-22T17:27:50;101108.34;;;19.80;44.24
59767;BME280;46248;58.364;25.582;2023-05-22T17:31:13;101105.84;;;19.67;44.53
59767;BME280;46248;58.364;25.582;2023-05-22T17:34:36;101108.31;;;19.57;45.02